Time;durP1;ratioP1;P1;durP2;ratioP2;P2;SDS_P1;SDS_P2;PMS_P1;PMS_P2;Temp;Humidity;BMP_temperature;BMP_pressure;BME280_temperature;BME280_humidity;BME280_pressure;Samples;Min_cycle;Max_cycle;Signal;HPM_P1;HPM_P2
2022/12/06 00:00:01;;;;;;;101.40;46.60;;;;;;;4.91;95.95;100412.11;103399;1305;24264;-59
2022/12/06 00:02:32;;;;;;;91.10;41.00;;;;;;;4.89;96.03;100409.31;103535;1291;25368;-61
2022/12/06 00:05:07;;;;;;;84.30;38.70;;;;;;;4.87;96.03;100404.84;103340;1284;22411;-60
2022/12/06 00:07:38;;;;;;;76.40;38.60;;;;;;;4.87;96.01;100399.86;103596;1305;25294;-61
2022/12/06 00:10:11;;;;;;;75.10;36.40;;;;;;;4.87;96.08;100401.54;103307;1283;24266;-59
2022/12/06 00:12:43;;;;;;;79.60;37.10;;;;;;;4.86;96.10;100401.01;103573;1284;22477;-60
2022/12/06 00:15:15;;;;;;;103.90;44.60;;;;;;;4.86;96.08;100395.16;103354;1283;25232;-61
2022/12/06 00:17:46;;;;;;;116.60;50.30;;;;;;;4.85;96.09;100394.78;103569;1305;25207;-60
2022/12/06 00:20:18;;;;;;;116.50;50.60;;;;;;;4.84;96.13;100396.15;103385;1283;25843;-61
2022/12/06 00:22:49;;;;;;;101.60;47.40;;;;;;;4.84;96.20;100408.11;103702;1284;25397;-60
2022/12/06 00:25:21;;;;;;;102.30;45.20;;;;;;;4.83;96.13;100418.64;103453;1297;23225;-62
2022/12/06 00:27:54;;;;;;;95.10;43.90;;;;;;;4.84;96.26;100420.89;104018;1277;25868;-61
2022/12/06 00:30:26;;;;;;;94.30;41.80;;;;;;;4.86;96.19;100420.45;103378;1290;22572;-61
2022/12/06 00:32:57;;;;;;;92.10;39.40;;;;;;;4.86;96.25;100421.63;103582;1304;24244;-61
2022/12/06 00:35:28;;;;;;;91.60;41.60;;;;;;;4.87;96.13;100418.20;103533;1277;25287;-62
2022/12/06 00:38:00;;;;;;;75.40;39.50;;;;;;;4.89;96.24;100425.73;103564;1301;22813;-62
2022/12/06 00:40:31;;;;;;;77.60;38.30;;;;;;;4.90;96.19;100430.70;103433;1306;22500;-60
2022/12/06 00:43:03;;;;;;;76.10;37.90;;;;;;;4.90;96.06;100431.07;103290;1305;25379;-60
2022/12/06 00:45:34;;;;;;;74.80;34.20;;;;;;;4.90;96.16;100428.08;103497;1306;22461;-60
2022/12/06 00:48:06;;;;;;;72.40;35.00;;;;;;;4.90;96.04;100417.98;103610;1305;24825;-62
2022/12/06 00:50:40;;;;;;;69.50;33.10;;;;;;;4.89;96.07;100417.77;103444;1277;25380;-60
2022/12/06 00:53:11;;;;;;;60.60;31.60;;;;;;;4.88;96.14;100416.59;103567;1284;22787;-60
2022/12/06 00:55:44;;;;;;;76.40;34.00;;;;;;;4.89;96.22;100415.70;103385;1283;24331;-61
2022/12/06 00:58:15;;;;;;;72.60;37.20;;;;;;;4.89;96.21;100417.98;103550;1305;25379;-61
2022/12/06 01:00:47;;;;;;;82.10;39.00;;;;;;;4.91;96.15;100423.48;103359;1297;24354;-61
2022/12/06 01:03:19;;;;;;;80.90;37.70;;;;;;;4.90;96.13;100418.51;103367;1284;24112;-61
2022/12/06 01:05:51;;;;;;;84.30;39.70;;;;;;;4.91;96.18;100410.27;103381;1305;24447;-61
2022/12/06 01:08:22;;;;;;;95.30;43.60;;;;;;;4.91;96.03;100404.67;103338;1283;23919;-60
2022/12/06 01:10:58;;;;;;;98.80;45.30;;;;;;;4.90;96.10;100393.46;103435;1298;24243;-61
2022/12/06 01:13:31;;;;;;;104.40;45.80;;;;;;;4.89;96.16;100376.27;103382;1275;25399;-61
2022/12/06 01:16:08;;;;;;;95.80;43.60;;;;;;;4.87;96.01;100367.31;103339;1305;22481;-59
2022/12/06 01:18:41;;;;;;;76.20;35.10;;;;;;;4.82;95.96;100365.81;103389;1305;25896;-59
2022/12/06 01:21:14;;;;;;;69.90;32.30;;;;;;;4.77;96.02;100362.53;103239;1305;24274;-60
2022/12/06 01:23:47;;;;;;;72.20;32.60;;;;;;;4.74;96.12;100366.02;103510;1299;22481;-61
2022/12/06 01:26:21;;;;;;;69.30;31.70;;;;;;;4.72;96.11;100360.14;103477;1305;22840;-61
2022/12/06 01:28:52;;;;;;;78.10;35.20;;;;;;;4.72;96.26;100354.45;103432;1283;22687;-60
2022/12/06 01:31:24;;;;;;;69.80;31.90;;;;;;;4.74;96.36;100347.84;103527;1284;22465;-61
2022/12/06 01:33:55;;;;;;;66.50;30.40;;;;;;;4.76;96.39;100339.73;103310;1305;22912;-59
2022/12/06 01:36:28;;;;;;;73.10;31.90;;;;;;;4.77;96.35;100331.71;103538;1280;25370;-61
2022/12/06 01:39:05;;;;;;;80.60;37.10;;;;;;;4.79;96.28;100326.68;103417;1305;25396;-61
2022/12/06 01:41:40;;;;;;;77.30;34.40;;;;;;;4.80;96.22;100324.90;103378;1305;25259;-59
2022/12/06 01:44:39;;;;;;;77.10;32.50;;;;;;;4.80;96.17;100318.02;103355;1305;25995;-59
2022/12/06 01:47:17;;;;;;;77.80;33.20;;;;;;;4.81;96.15;100311.77;103312;1305;22474;-61
2022/12/06 01:49:54;;;;;;;99.10;38.70;;;;;;;4.82;96.09;100304.77;103408;1305;22467;-61
2022/12/06 01:52:28;;;;;;;77.00;36.30;;;;;;;4.82;96.06;100308.26;103440;1305;22919;-60
2022/12/06 01:55:01;;;;;;;65.70;30.10;;;;;;;4.82;96.13;100312.77;103324;1277;24042;-61
2022/12/06 01:57:33;;;;;;;82.20;33.80;;;;;;;4.81;96.08;100315.79;103388;1305;22490;-60
2022/12/06 02:00:05;;;;;;;61.30;28.80;;;;;;;4.80;96.13;100312.84;103402;1305;22549;-60
2022/12/06 02:02:37;;;;;;;62.30;29.70;;;;;;;4.80;96.17;100313.78;103463;1305;22467;-60
2022/12/06 02:05:10;;;;;;;63.00;28.40;;;;;;;4.79;96.17;100315.23;103364;1277;22475;-60
2022/12/06 02:07:43;;;;;;;57.20;27.60;;;;;;;4.78;96.15;100306.55;103455;1300;24271;-60
2022/12/06 02:10:14;;;;;;;62.00;28.50;;;;;;;4.77;96.15;100305.55;103379;1281;26496;-58
2022/12/06 02:12:47;;;;;;;60.30;25.90;;;;;;;4.79;96.18;100311.91;103505;1305;23979;-59
2022/12/06 02:15:23;;;;;;;64.80;30.70;;;;;;;4.78;96.30;100318.17;103380;1283;24269;-60
2022/12/06 02:18:03;;;;;;;60.40;28.40;;;;;;;4.77;96.27;100318.27;103419;1305;25785;-59
2022/12/06 02:20:41;;;;;;;63.10;29.70;;;;;;;4.76;96.15;100317.05;103381;1300;22615;-61
2022/12/06 02:23:35;;;;;;;59.60;28.40;;;;;;;4.75;96.29;100315.73;103339;1305;22463;-59
2022/12/06 02:26:26;;;;;;;64.50;28.00;;;;;;;4.75;96.23;100306.42;102924;1303;23083;-61
2022/12/06 02:29:24;;;;;;;59.10;26.80;;;;;;;4.76;96.24;100300.68;103058;1287;22486;-62
2022/12/06 02:32:00;;;;;;;62.50;29.40;;;;;;;4.74;96.17;100297.59;103538;1310;22481;-62
2022/12/06 02:34:41;;;;;;;59.90;27.50;;;;;;;4.74;96.30;100292.45;103024;1311;23968;-61
2022/12/06 02:37:17;;;;;;;61.00;27.10;;;;;;;4.74;96.28;100286.27;103008;1311;23848;-60
2022/12/06 02:39:52;;;;;;;59.60;27.90;;;;;;;4.74;96.32;100280.11;103073;1311;22487;-60
2022/12/06 02:42:26;;;;;;;57.40;27.60;;;;;;;4.75;96.40;100276.94;102945;1287;25225;-60
2022/12/06 02:45:02;;;;;;;62.30;26.80;;;;;;;4.73;96.30;100272.86;103115;1304;24358;-61
2022/12/06 02:47:37;;;;;;;59.60;26.70;;;;;;;4.72;96.29;100269.83;103023;1311;25239;-63
2022/12/06 02:50:13;;;;;;;60.40;28.50;;;;;;;4.69;96.29;100269.69;103081;1311;25975;-60
2022/12/06 02:52:49;;;;;;;57.90;27.20;;;;;;;4.70;96.46;100265.54;103060;1287;24947;-59
2022/12/06 02:55:23;;;;;;;59.90;27.10;;;;;;;4.70;96.33;100265.63;103085;1311;22509;-60
2022/12/06 02:57:56;;;;;;;58.50;26.80;;;;;;;4.65;96.34;100265.69;103055;1285;22482;-61
2022/12/06 03:00:38;;;;;;;53.90;25.40;;;;;;;4.65;96.37;100267.98;103037;1311;22493;-59
2022/12/06 03:03:32;;;;;;;54.00;25.70;;;;;;;4.66;96.54;100267.14;103078;1311;22479;-60
2022/12/06 03:06:21;;;;;;;59.10;26.10;;;;;;;4.69;96.54;100273.57;103325;1305;24322;-60
2022/12/06 03:09:06;;;;;;;58.50;26.20;;;;;;;4.68;96.54;100275.08;103454;1306;26728;-59
2022/12/06 03:11:50;;;;;;;61.60;28.10;;;;;;;4.67;96.64;100273.27;103368;1300;22606;-60
2022/12/06 03:14:25;;;;;;;59.00;28.40;;;;;;;4.67;96.61;100268.08;103466;1284;22474;-61
2022/12/06 03:17:10;;;;;;;75.40;32.90;;;;;;;4.68;96.70;100266.92;103379;1284;24331;-60
2022/12/06 03:19:42;;;;;;;64.10;30.10;;;;;;;4.69;96.67;100259.27;103280;1284;22661;-62
2022/12/06 03:22:20;;;;;;;75.40;33.30;;;;;;;4.68;96.68;100256.45;103353;1283;22514;-60
2022/12/06 03:24:52;;;;;;;73.80;33.20;;;;;;;4.68;96.66;100259.77;103377;1284;22476;-61
2022/12/06 03:27:25;;;;;;;71.70;33.10;;;;;;;4.66;96.61;100257.75;103379;1305;25408;-62
2022/12/06 03:30:02;;;;;;;68.20;30.90;;;;;;;4.63;96.53;100257.77;103396;1305;22482;-61
2022/12/06 03:32:37;;;;;;;59.20;27.80;;;;;;;4.57;96.39;100254.55;103467;1293;22487;-60
2022/12/06 03:35:13;;;;;;;61.10;28.80;;;;;;;4.51;96.50;100259.76;103357;1287;22484;-59
2022/12/06 03:37:49;;;;;;;58.50;27.70;;;;;;;4.42;96.38;100262.93;103380;1306;23099;-61
2022/12/06 03:40:24;;;;;;;64.80;29.30;;;;;;;4.39;96.70;100258.84;103311;1305;24266;-59
2022/12/06 03:42:57;;;;;;;59.80;30.90;;;;;;;4.39;96.91;100255.04;103704;1283;22517;-60
2022/12/06 03:45:35;;;;;;;64.10;28.80;;;;;;;4.41;97.07;100251.60;103228;1300;24239;-60
2022/12/06 03:48:12;;;;;;;67.90;31.20;;;;;;;4.42;97.04;100254.48;103518;1299;22474;-61
2022/12/06 03:50:50;;;;;;;58.50;29.30;;;;;;;4.44;97.05;100249.94;103402;1305;25380;-61
2022/12/06 03:53:22;;;;;;;67.90;31.80;;;;;;;4.46;97.07;100244.83;103399;1284;23042;-58
2022/12/06 03:55:54;;;;;;;66.20;31.30;;;;;;;4.49;97.14;100246.02;103392;1300;22470;-59
2022/12/06 03:58:28;;;;;;;62.50;30.80;;;;;;;4.51;97.03;100250.69;103398;1296;22508;-60
2022/12/06 04:01:03;;;;;;;62.90;29.80;;;;;;;4.50;96.93;100251.27;103398;1284;25382;-60
2022/12/06 04:03:34;;;;;;;64.80;29.90;;;;;;;4.47;96.97;100246.23;103354;1284;22469;-61
2022/12/06 04:06:11;;;;;;;66.50;31.20;;;;;;;4.44;96.96;100245.44;103453;1281;22488;-62
2022/12/06 04:08:42;;;;;;;63.10;32.00;;;;;;;4.41;97.08;100245.59;103364;1305;22472;-60
2022/12/06 04:11:13;;;;;;;65.00;30.90;;;;;;;4.39;97.21;100241.69;103447;1277;22867;-58
2022/12/06 04:13:45;;;;;;;65.00;30.80;;;;;;;4.38;97.28;100242.59;103410;1305;24225;-59
2022/12/06 04:19:07;;;;;;;69.90;33.00;;;;;;;4.42;97.56;100237.13;103319;1284;24769;-59
2022/12/06 04:24:28;;;;;;;65.00;31.80;;;;;;;4.48;97.59;100244.22;103284;1284;23692;-60
2022/12/06 04:28:40;;;;;;;68.30;31.50;;;;;;;4.50;97.72;100240.91;103203;1305;334123;-61
2022/12/06 04:41:06;;;;;;;65.90;31.10;;;;;;;4.55;97.67;100229.16;103283;1291;22481;-60
2022/12/06 04:43:44;;;;;;;58.80;29.60;;;;;;;4.56;97.67;100228.82;103367;1280;23843;-61
2022/12/06 04:46:17;;;;;;;62.20;29.70;;;;;;;4.57;97.72;100223.74;103297;1305;22859;-60
2022/12/06 04:48:48;;;;;;;66.80;30.10;;;;;;;4.57;97.65;100222.05;103277;1291;22460;-57
2022/12/06 04:51:20;;;;;;;66.70;28.30;;;;;;;4.58;97.56;100216.59;103210;1305;22600;-59
2022/12/06 04:53:52;;;;;;;66.70;31.80;;;;;;;4.56;97.55;100213.02;103264;1305;22713;-60
2022/12/06 04:56:23;;;;;;;62.60;28.60;;;;;;;4.56;97.56;100214.52;103276;1283;24253;-59
2022/12/06 04:58:54;;;;;;;63.90;28.30;;;;;;;4.56;97.65;100215.31;103460;1304;24177;-59
2022/12/06 05:01:25;;;;;;;59.40;28.70;;;;;;;4.54;97.76;100216.00;103426;1284;22645;-61
2022/12/06 05:03:57;;;;;;;61.60;28.60;;;;;;;4.52;97.78;100212.83;103255;1284;22495;-59
2022/12/06 05:06:29;;;;;;;62.30;28.30;;;;;;;4.51;97.88;100209.06;103261;1284;22592;-59
2022/12/06 05:09:02;;;;;;;61.70;30.10;;;;;;;4.51;98.03;100209.55;103314;1285;26195;-61
2022/12/06 05:11:33;;;;;;;63.00;29.70;;;;;;;4.49;97.99;100203.58;103273;1291;23686;-61
2022/12/06 05:14:05;;;;;;;64.80;31.70;;;;;;;4.50;97.95;100203.64;103127;1285;22468;-61
2022/12/06 05:16:36;;;;;;;63.00;31.90;;;;;;;4.50;98.05;100201.18;103210;1305;22477;-62
2022/12/06 05:19:08;;;;;;;66.90;29.40;;;;;;;4.49;98.05;100199.30;103337;1285;22478;-60
2022/12/06 05:21:41;;;;;;;64.70;29.80;;;;;;;4.48;98.21;100194.84;103478;1291;22498;-61
2022/12/06 05:24:13;;;;;;;60.90;28.10;;;;;;;4.48;98.25;100197.38;103274;1284;22465;-62
2022/12/06 05:26:46;;;;;;;57.90;28.80;;;;;;;4.46;98.23;100194.44;103352;1305;22539;-61
2022/12/06 05:29:19;;;;;;;58.60;29.20;;;;;;;4.46;98.28;100193.17;103426;1277;24923;-62
2022/12/06 05:31:50;;;;;;;50.20;25.70;;;;;;;4.47;98.39;100194.73;103379;1288;22464;-62
2022/12/06 05:34:23;;;;;;;61.70;28.30;;;;;;;4.47;98.46;100191.08;105025;1284;22479;-60
2022/12/06 05:36:54;;;;;;;60.40;28.00;;;;;;;4.49;98.49;100191.16;103320;1300;22466;-62
2022/12/06 05:39:28;;;;;;;56.60;27.70;;;;;;;4.51;98.42;100191.13;103319;1301;22501;-62
2022/12/06 05:41:59;;;;;;;65.00;27.70;;;;;;;4.51;98.40;100190.08;103180;1305;25530;-61
2022/12/06 05:44:31;;;;;;;55.70;29.10;;;;;;;4.52;98.40;100193.78;103450;1282;22489;-61
2022/12/06 05:47:02;;;;;;;63.30;27.00;;;;;;;4.51;98.42;100189.92;103452;1284;22480;-59
2022/12/06 05:49:33;;;;;;;59.50;28.50;;;;;;;4.51;98.55;100193.10;103573;1306;25392;-60
2022/12/06 05:52:08;;;;;;;51.50;25.20;;;;;;;4.51;98.46;100193.74;103557;1285;22481;-60
2022/12/06 05:54:39;;;;;;;54.20;25.30;;;;;;;4.51;98.59;100192.48;103280;1297;24286;-63
2022/12/06 05:57:11;;;;;;;57.20;27.20;;;;;;;4.50;98.51;100191.15;103402;1284;25369;-61
2022/12/06 05:59:46;;;;;;;56.40;25.90;;;;;;;4.50;98.57;100192.11;103474;1288;22594;-64
2022/12/06 06:02:18;;;;;;;53.50;23.50;;;;;;;4.48;98.60;100188.39;103352;1305;23037;-59
2022/12/06 06:04:49;;;;;;;51.10;24.40;;;;;;;4.45;98.50;100189.17;103473;1297;22651;-59
2022/12/06 06:07:21;;;;;;;51.80;25.10;;;;;;;4.44;98.53;100189.60;103357;1277;22481;-59
2022/12/06 06:09:52;;;;;;;58.70;23.80;;;;;;;4.41;98.59;100191.87;103413;1284;24295;-59
2022/12/06 06:12:25;;;;;;;53.40;24.70;;;;;;;4.40;98.61;100195.77;103435;1291;22525;-59
2022/12/06 06:14:57;;;;;;;48.00;21.40;;;;;;;4.38;98.71;100196.64;103361;1305;23781;-61
2022/12/06 06:17:28;;;;;;;46.30;21.90;;;;;;;4.34;98.66;100198.56;103558;1284;26687;-61
2022/12/06 06:20:04;;;;;;;45.10;19.40;;;;;;;4.32;98.70;100200.27;103504;1280;23884;-59
2022/12/06 06:22:36;;;;;;;46.60;20.40;;;;;;;4.29;98.74;100200.38;103385;1305;24260;-55
2022/12/06 06:25:10;;;;;;;44.50;20.40;;;;;;;4.26;98.70;100203.30;103404;1283;25662;-60
2022/12/06 06:27:41;;;;;;;40.70;16.90;;;;;;;4.25;98.99;100203.02;103504;1298;22486;-58
2022/12/06 06:30:14;;;;;;;43.80;16.70;;;;;;;4.25;98.90;100202.47;103448;1284;24348;-62
2022/12/06 06:32:45;;;;;;;41.50;17.10;;;;;;;4.22;98.84;100206.08;103379;1305;22460;-58
2022/12/06 06:35:16;;;;;;;43.50;18.30;;;;;;;4.20;98.87;100204.97;103226;1282;22483;-58
2022/12/06 06:37:48;;;;;;;37.50;16.80;;;;;;;4.19;98.94;100202.92;103394;1289;22495;-56
2022/12/06 06:40:20;;;;;;;47.90;19.20;;;;;;;4.20;99.09;100205.05;103266;1305;22482;-55
2022/12/06 06:42:54;;;;;;;47.10;19.90;;;;;;;4.20;99.20;100204.56;103757;1287;24363;-57
2022/12/06 06:45:25;;;;;;;39.50;17.10;;;;;;;4.20;99.22;100203.91;103398;1300;24366;-55
2022/12/06 06:47:57;;;;;;;40.50;17.60;;;;;;;4.21;99.21;100202.55;103469;1305;22481;-55
2022/12/06 06:50:29;;;;;;;48.20;20.50;;;;;;;4.23;99.29;100202.66;103539;1305;22521;-57
2022/12/06 06:53:03;;;;;;;39.30;18.40;;;;;;;4.25;99.39;100200.65;103423;1285;22464;-53
2022/12/06 06:55:37;;;;;;;43.50;20.20;;;;;;;4.26;99.28;100201.02;103359;1305;25010;-53
2022/12/06 06:58:09;;;;;;;45.40;19.10;;;;;;;4.27;99.31;100198.23;103405;1284;22458;-56
2022/12/06 07:00:40;;;;;;;51.10;19.20;;;;;;;4.29;99.36;100196.20;103465;1306;25170;-54
2022/12/06 07:03:15;;;;;;;41.80;18.20;;;;;;;4.31;99.34;100197.48;103335;1284;22474;-57
2022/12/06 07:05:53;;;;;;;50.20;18.90;;;;;;;4.31;99.26;100199.85;103269;1287;23078;-57
2022/12/06 07:08:24;;;;;;;43.70;18.70;;;;;;;4.29;99.25;100197.68;103376;1280;25244;-56
2022/12/06 07:10:56;;;;;;;37.90;16.00;;;;;;;4.26;99.08;100190.83;103319;1281;22523;-54
2022/12/06 07:13:28;;;;;;;34.00;12.90;;;;;;;4.20;98.84;100179.77;103342;1280;22475;-55
2022/12/06 07:16:02;;;;;;;27.60;10.50;;;;;;;4.09;98.17;100188.36;103214;1285;22488;-57
2022/12/06 07:18:35;;;;;;;29.90;11.40;;;;;;;4.00;98.06;100206.05;103283;1284;23093;-55
2022/12/06 07:21:09;;;;;;;26.10;10.50;;;;;;;3.93;98.25;100197.08;103254;1280;22488;-55
2022/12/06 07:23:44;;;;;;;28.90;11.10;;;;;;;3.86;98.06;100196.00;103194;1308;22696;-55
2022/12/06 07:26:17;;;;;;;29.10;11.70;;;;;;;3.79;98.09;100195.09;103251;1287;22868;-57
2022/12/06 07:28:50;;;;;;;29.20;11.50;;;;;;;3.78;98.47;100195.68;103251;1291;22476;-54
2022/12/06 07:31:26;;;;;;;22.90;8.90;;;;;;;3.76;98.42;100189.26;103224;1285;22527;-54
2022/12/06 07:34:02;;;;;;;22.90;8.40;;;;;;;3.71;98.26;100192.38;103286;1284;22499;-55
2022/12/06 07:36:34;;;;;;;22.20;7.70;;;;;;;3.65;98.31;100189.67;103281;1280;26504;-56
2022/12/06 07:39:08;;;;;;;24.00;8.20;;;;;;;3.62;98.35;100192.85;103311;1285;22495;-58
2022/12/06 07:47:17;;;;;;;24.70;8.90;;;;;;;3.53;98.59;100186.23;103321;1307;22472;-57
2022/12/06 07:49:51;;;;;;;20.90;8.30;;;;;;;3.51;98.70;100182.73;103301;1306;24294;-54
2022/12/06 07:52:23;;;;;;;25.20;8.50;;;;;;;3.50;98.73;100187.23;103294;1281;23726;-56
2022/12/06 07:54:54;;;;;;;27.20;9.80;;;;;;;3.49;98.71;100183.17;103034;1296;22488;-56
2022/12/06 07:57:26;;;;;;;25.90;8.60;;;;;;;3.47;98.71;100180.61;102988;1304;23080;-58
2022/12/06 07:59:58;;;;;;;24.10;9.20;;;;;;;3.46;98.72;100180.16;103071;1306;24435;-55
2022/12/06 08:02:30;;;;;;;22.40;8.40;;;;;;;3.44;98.78;100176.19;103242;1298;22514;-55
2022/12/06 08:05:02;;;;;;;21.00;8.70;;;;;;;3.40;98.75;100176.61;102913;1291;26208;-58
2022/12/06 08:07:34;;;;;;;24.50;8.70;;;;;;;3.37;98.89;100174.40;102903;1287;23553;-56
2022/12/06 08:10:07;;;;;;;24.00;9.30;;;;;;;3.34;99.00;100172.35;103000;1305;22838;-58
2022/12/06 08:12:38;;;;;;;23.20;8.10;;;;;;;3.32;99.10;100170.02;102945;1285;26615;-56
2022/12/06 08:15:13;;;;;;;22.40;8.50;;;;;;;3.30;99.09;100171.80;103052;1287;22464;-57
2022/12/06 08:17:45;;;;;;;20.40;8.00;;;;;;;3.27;99.07;100169.98;103244;1304;22898;-57
2022/12/06 08:20:17;;;;;;;21.00;8.50;;;;;;;3.26;99.19;100169.86;103014;1280;22489;-58
2022/12/06 08:22:48;;;;;;;22.50;9.10;;;;;;;3.25;99.38;100170.03;103346;1280;22472;-57
2022/12/06 08:25:19;;;;;;;29.10;11.00;;;;;;;3.27;99.54;100169.29;103412;1287;24331;-54
2022/12/06 08:27:52;;;;;;;26.10;11.50;;;;;;;3.29;99.67;100169.55;103127;1291;22473;-56
2022/12/06 08:30:23;;;;;;;24.90;9.50;;;;;;;3.32;99.80;100169.48;103098;1306;25356;-55
2022/12/06 08:32:55;;;;;;;25.30;10.30;;;;;;;3.32;99.61;100167.17;103128;1295;22481;-56
2022/12/06 08:35:26;;;;;;;27.60;11.50;;;;;;;3.33;99.48;100171.99;103092;1280;22466;-56
2022/12/06 08:37:57;;;;;;;28.40;10.40;;;;;;;3.34;99.38;100172.20;103180;1312;22468;-57
2022/12/06 08:40:29;;;;;;;25.20;8.90;;;;;;;3.35;99.49;100177.86;102945;1283;22486;-59
2022/12/06 08:43:00;;;;;;;26.40;9.70;;;;;;;3.34;99.24;100180.79;102880;1281;22476;-58
2022/12/06 08:45:31;;;;;;;26.20;9.80;;;;;;;3.33;99.33;100179.95;102978;1280;22652;-58
2022/12/06 08:48:04;;;;;;;23.70;9.10;;;;;;;3.33;99.38;100181.83;103131;1303;22491;-56
2022/12/06 08:50:35;;;;;;;21.50;8.30;;;;;;;3.33;99.31;100179.46;102976;1312;22478;-57
2022/12/06 08:53:07;;;;;;;20.50;7.70;;;;;;;3.33;99.28;100180.26;102790;1305;22520;-55
2022/12/06 08:55:38;;;;;;;24.90;9.90;;;;;;;3.34;99.49;100175.02;103075;1306;22470;-60
2022/12/06 08:58:09;;;;;;;31.00;11.40;;;;;;;3.34;99.45;100174.47;102864;1312;22467;-57
2022/12/06 09:00:41;;;;;;;25.00;9.90;;;;;;;3.34;99.53;100165.34;102986;1280;24222;-57
2022/12/06 09:03:13;;;;;;;24.30;8.70;;;;;;;3.34;99.36;100166.35;102893;1304;22859;-57
2022/12/06 09:05:44;;;;;;;22.20;7.90;;;;;;;3.33;99.42;100161.65;103015;1308;22605;-58
2022/12/06 09:08:15;;;;;;;18.80;6.80;;;;;;;3.29;99.15;100156.92;102943;1280;24346;-59
2022/12/06 09:10:47;;;;;;;19.10;6.50;;;;;;;3.23;99.03;100161.17;103088;1290;25474;-56
2022/12/06 09:13:18;;;;;;;20.70;7.30;;;;;;;3.19;99.11;100161.14;102941;1292;24297;-55
2022/12/06 09:15:49;;;;;;;22.40;8.60;;;;;;;3.13;99.13;100166.70;102759;1287;25406;-57
2022/12/06 09:18:21;;;;;;;18.40;6.50;;;;;;;3.11;99.29;100164.71;102861;1307;22487;-56
2022/12/06 09:20:52;;;;;;;18.60;6.20;;;;;;;3.08;99.35;100160.13;103072;1308;22680;-59
2022/12/06 09:23:23;;;;;;;15.90;5.20;;;;;;;3.05;99.32;100154.27;102957;1284;22470;-55
2022/12/06 09:25:55;;;;;;;15.90;4.80;;;;;;;3.03;99.59;100151.17;103045;1284;22660;-57
2022/12/06 09:28:26;;;;;;;19.90;6.40;;;;;;;2.99;99.62;100154.35;102834;1280;22461;-56
2022/12/06 09:30:57;;;;;;;18.30;6.70;;;;;;;2.97;99.56;100156.45;103230;1288;23779;-55
2022/12/06 09:33:29;;;;;;;16.70;5.40;;;;;;;2.96;99.68;100154.01;102884;1283;25541;-58
2022/12/06 09:36:03;;;;;;;17.60;5.60;;;;;;;2.95;99.62;100144.52;102862;1303;24424;-56
2022/12/06 09:38:38;;;;;;;18.80;6.70;;;;;;;2.94;99.75;100148.02;102972;1290;24364;-56
2022/12/06 09:41:20;;;;;;;15.50;4.90;;;;;;;2.95;99.95;100154.69;103116;1287;22568;-57
2022/12/06 09:44:07;;;;;;;15.90;5.10;;;;;;;2.94;99.87;100159.42;102922;1280;25278;-59
2022/12/06 09:46:51;;;;;;;15.10;4.80;;;;;;;2.94;99.93;100162.20;102928;1304;23080;-56
2022/12/06 09:49:37;;;;;;;17.20;5.30;;;;;;;2.97;100.00;100157.00;103117;1287;22462;-56
2022/12/06 09:52:37;;;;;;;16.70;4.90;;;;;;;2.96;99.93;100157.02;102874;1288;24351;-59
2022/12/06 09:55:22;;;;;;;13.80;4.30;;;;;;;2.94;99.70;100153.14;102844;1306;22463;-56
2022/12/06 09:58:05;;;;;;;14.80;5.20;;;;;;;2.92;99.77;100152.15;102894;1280;23218;-56
2022/12/06 10:00:45;;;;;;;13.70;3.70;;;;;;;2.92;99.86;100148.52;102850;1284;24459;-58
2022/12/06 10:03:38;;;;;;;11.30;3.40;;;;;;;2.91;99.67;100145.41;102860;1291;26181;-57
2022/12/06 10:06:12;;;;;;;13.90;4.50;;;;;;;2.87;99.74;100133.29;102758;1309;22466;-57
2022/12/06 10:09:04;;;;;;;11.70;3.60;;;;;;;2.85;99.89;100123.31;102891;1290;22480;-57
2022/12/06 10:11:52;;;;;;;14.20;5.00;;;;;;;2.83;99.99;100116.04;102768;1290;22473;-58
2022/12/06 10:14:41;;;;;;;16.30;5.30;;;;;;;2.83;100.00;100114.80;102929;1307;22536;-58
2022/12/06 10:17:25;;;;;;;15.60;5.90;;;;;;;2.85;100.00;100107.50;102817;1285;22610;-57
2022/12/06 10:20:07;;;;;;;14.80;4.60;;;;;;;2.87;100.00;100105.39;102888;1284;24396;-57
2022/12/06 10:22:52;;;;;;;16.50;5.40;;;;;;;2.88;100.00;100104.66;102833;1285;22971;-58
2022/12/06 10:25:28;;;;;;;13.10;4.70;;;;;;;2.89;100.00;100099.98;103012;1292;24270;-57
2022/12/06 10:28:07;;;;;;;15.20;5.30;;;;;;;2.91;100.00;100093.89;102948;1305;24351;-56
2022/12/06 10:30:50;;;;;;;18.80;6.30;;;;;;;2.89;100.00;100095.73;102909;1284;25473;-55
2022/12/06 10:33:32;;;;;;;13.80;5.10;;;;;;;2.91;100.00;100094.36;102919;1291;24544;-59
2022/12/06 10:36:05;;;;;;;18.80;5.70;;;;;;;2.90;100.00;100096.17;102955;1307;25317;-57
2022/12/06 10:38:44;;;;;;;16.40;5.10;;;;;;;2.90;100.00;100099.16;103226;1306;22490;-55
2022/12/06 10:41:21;;;;;;;17.70;5.60;;;;;;;2.89;100.00;100094.95;104105;1305;25398;-58
2022/12/06 10:43:58;;;;;;;17.90;6.50;;;;;;;2.89;100.00;100093.62;102935;1280;25323;-57
2022/12/06 10:49:32;;;;;;;19.10;6.80;;;;;;;2.88;100.00;100085.27;104484;1283;22477;-57
2022/12/06 10:52:14;;;;;;;16.40;5.90;;;;;;;2.86;100.00;100082.80;103255;1291;22522;-57
2022/12/06 10:54:55;;;;;;;16.70;5.80;;;;;;;2.85;100.00;100084.18;103024;1284;22669;-59
2022/12/06 10:57:32;;;;;;;20.40;6.50;;;;;;;2.84;100.00;100083.95;102982;1290;22467;-58
2022/12/06 11:00:12;;;;;;;17.80;7.20;;;;;;;2.84;100.00;100080.97;102892;1299;22496;-56
2022/12/06 11:02:46;;;;;;;;;;;;;;;2.84;100.00;100077.82;102919;1284;22502;-57
2022/12/06 11:05:23;;;;;;;21.90;8.20;;;;;;;2.84;100.00;100069.95;103147;1284;25405;-55
2022/12/06 11:07:59;;;;;;;20.80;7.50;;;;;;;2.82;100.00;100066.29;102866;1307;24351;-56
2022/12/06 11:10:34;;;;;;;22.30;9.00;;;;;;;2.80;100.00;100065.47;102955;1283;22545;-57
2022/12/06 11:13:20;;;;;;;23.30;8.50;;;;;;;2.78;100.00;100062.53;102912;1284;25024;-56
2022/12/06 11:15:57;;;;;;;20.50;7.80;;;;;;;2.76;100.00;100064.70;103012;1305;24339;-54
2022/12/06 11:18:30;;;;;;;24.00;10.10;;;;;;;2.72;100.00;100063.84;103009;1285;22478;-57
2022/12/06 11:21:06;;;;;;;24.30;9.00;;;;;;;2.70;100.00;100055.16;102928;1288;25361;-56
2022/12/06 11:23:45;;;;;;;21.80;7.90;;;;;;;2.70;100.00;100048.63;102984;1289;24262;-55
2022/12/06 11:26:24;;;;;;;19.80;7.70;;;;;;;2.70;100.00;100040.44;102957;1289;22926;-59
2022/12/06 11:29:04;;;;;;;21.30;7.70;;;;;;;2.71;100.00;100042.23;102865;1285;22466;-57
2022/12/06 11:31:41;;;;;;;20.00;7.50;;;;;;;2.72;100.00;100042.58;102827;1301;22463;-55
2022/12/06 11:34:19;;;;;;;17.60;7.30;;;;;;;2.73;100.00;100044.46;102841;1291;22607;-58
2022/12/06 11:36:52;;;;;;;19.60;7.40;;;;;;;2.75;100.00;100043.95;102842;1306;22529;-57
2022/12/06 11:39:24;;;;;;;19.10;6.80;;;;;;;2.73;100.00;100044.55;103074;1293;25237;-58
2022/12/06 11:41:58;;;;;;;16.30;5.70;;;;;;;2.71;100.00;100044.73;103096;1283;22477;-56
2022/12/06 11:44:35;;;;;;;18.20;6.30;;;;;;;2.71;100.00;100047.65;103139;1306;23718;-57
2022/12/06 11:47:07;;;;;;;18.40;7.70;;;;;;;2.72;100.00;100047.80;102953;1305;22501;-55
2022/12/06 11:49:44;;;;;;;16.50;5.90;;;;;;;2.73;100.00;100045.23;102919;1287;22472;-57
2022/12/06 11:52:21;;;;;;;17.70;6.60;;;;;;;2.74;100.00;100036.08;102937;1306;22594;-55
2022/12/06 11:54:57;;;;;;;18.50;7.20;;;;;;;2.75;100.00;100032.54;102902;1292;25344;-55
2022/12/06 11:57:33;;;;;;;17.80;7.20;;;;;;;2.76;100.00;100029.49;103009;1280;22469;-57
2022/12/06 12:00:15;;;;;;;16.40;5.90;;;;;;;2.76;100.00;100025.64;102910;1305;23175;-59
2022/12/06 12:02:49;;;;;;;16.20;6.40;;;;;;;2.76;100.00;100024.14;103006;1301;22488;-58
2022/12/06 12:05:24;;;;;;;16.60;5.90;;;;;;;2.76;100.00;100023.59;102880;1278;22470;-58
2022/12/06 12:07:59;;;;;;;15.30;5.40;;;;;;;2.77;100.00;100020.41;103008;1280;24294;-56
2022/12/06 12:10:35;;;;;;;14.40;5.50;;;;;;;2.77;100.00;100018.36;102845;1305;24443;-55